SLI851 MMMX-MMPR
Flight info
| Callsign | SLI851 |
|---|---|
| Flight time | N/A |
| Altitude | 38000 |
| Route | SEBON3A SEBON UT124 GDL UJ14N NOTUP NOTUP1A |
| Aircraft | E190/M-SDE3GILORVW/S |
Departure
| Time | N/A |
|---|---|
| Airport | Mexico City Benito Juárez International Airport (MMMX) |
Arrival
| Time | 2026-04-23 07:46 |
|---|---|
| Airport | Puerto Vallarta International Airport (MMPR) |
| Time | Latitude | Longitude | Altitude | Speed | Heading |
|---|---|---|---|---|---|
| 2026-04-23 06:55 | 19.54365 | -100.72490 | 34634 ft | 439 kts | 290° |
| 2026-04-23 06:56 | 19.55397 | -100.75523 | 34899 ft | 437 kts | 290° |
| 2026-04-23 06:56 | 19.56429 | -100.78547 | 35164 ft | 435 kts | 290° |
| 2026-04-23 06:56 | 19.57455 | -100.81557 | 35411 ft | 434 kts | 290° |
| 2026-04-23 06:56 | 19.58480 | -100.84562 | 35685 ft | 432 kts | 290° |
| 2026-04-23 06:57 | 19.59496 | -100.87546 | 35992 ft | 430 kts | 290° |
| 2026-04-23 06:57 | 19.60512 | -100.90529 | 36168 ft | 430 kts | 290° |
| 2026-04-23 06:57 | 19.61185 | -100.92506 | 36307 ft | 430 kts | 290° |
| 2026-04-23 06:57 | 19.62200 | -100.95492 | 36090 ft | 430 kts | 290° |
| 2026-04-23 06:58 | 19.63210 | -100.98467 | 35717 ft | 423 kts | 290° |
| 2026-04-23 06:58 | 19.64205 | -101.01394 | 35811 ft | 423 kts | 290° |
| 2026-04-23 06:58 | 19.66538 | -101.08274 | 35955 ft | 430 kts | 290° |
| 2026-04-23 06:59 | 19.68249 | -101.13323 | 36004 ft | 434 kts | 290° |
| 2026-04-23 06:59 | 19.70272 | -101.19300 | 35999 ft | 429 kts | 290° |
| 2026-04-23 07:00 | 19.72289 | -101.25267 | 36006 ft | 431 kts | 289° |
| 2026-04-23 07:00 | 19.74322 | -101.31289 | 36001 ft | 433 kts | 289° |
| 2026-04-23 07:01 | 19.76331 | -101.37248 | 36002 ft | 431 kts | 289° |
| 2026-04-23 07:01 | 19.78352 | -101.43248 | 36004 ft | 431 kts | 289° |
| 2026-04-23 07:02 | 19.80372 | -101.49253 | 36001 ft | 431 kts | 289° |
| 2026-04-23 07:02 | 19.82390 | -101.55260 | 36001 ft | 431 kts | 289° |
| 2026-04-23 07:03 | 19.84402 | -101.61260 | 36002 ft | 431 kts | 289° |
| 2026-04-23 07:03 | 19.86408 | -101.67247 | 36002 ft | 430 kts | 289° |
| 2026-04-23 07:04 | 19.88402 | -101.73204 | 36001 ft | 430 kts | 289° |
| 2026-04-23 07:04 | 19.90406 | -101.79196 | 36005 ft | 430 kts | 289° |
| 2026-04-23 07:05 | 19.92411 | -101.85204 | 36002 ft | 431 kts | 289° |
| 2026-04-23 07:05 | 19.94416 | -101.91219 | 36000 ft | 432 kts | 289° |
| 2026-04-23 07:06 | 19.96420 | -101.97237 | 36004 ft | 430 kts | 289° |
| 2026-04-23 07:06 | 19.98416 | -102.03238 | 36002 ft | 430 kts | 289° |
| 2026-04-23 07:07 | 20.00404 | -102.09224 | 36002 ft | 429 kts | 289° |
| 2026-04-23 07:07 | 20.02395 | -102.15226 | 36001 ft | 430 kts | 289° |
| 2026-04-23 07:08 | 20.04362 | -102.21163 | 36000 ft | 427 kts | 289° |
| 2026-04-23 07:08 | 20.06338 | -102.27133 | 36002 ft | 428 kts | 289° |
| 2026-04-23 07:09 | 20.08311 | -102.33104 | 36000 ft | 429 kts | 289° |
| 2026-04-23 07:09 | 20.10282 | -102.39077 | 36000 ft | 427 kts | 289° |
| 2026-04-23 07:10 | 20.12254 | -102.45059 | 36003 ft | 429 kts | 289° |
| 2026-04-23 07:10 | 20.14221 | -102.51034 | 36002 ft | 427 kts | 289° |
| 2026-04-23 07:11 | 20.16185 | -102.57009 | 36004 ft | 427 kts | 289° |
| 2026-04-23 07:12 | 20.19138 | -102.65926 | 36000 ft | 427 kts | 291° |
| 2026-04-23 07:12 | 20.21572 | -102.71697 | 36006 ft | 427 kts | 298° |
| 2026-04-23 07:13 | 20.24423 | -102.77256 | 36002 ft | 427 kts | 299° |
| 2026-04-23 07:13 | 20.27309 | -102.82806 | 36001 ft | 427 kts | 299° |
| 2026-04-23 07:14 | 20.30193 | -102.88354 | 36002 ft | 427 kts | 299° |
| 2026-04-23 07:14 | 20.33063 | -102.93882 | 36001 ft | 429 kts | 299° |
| 2026-04-23 07:15 | 20.35949 | -102.99444 | 36001 ft | 430 kts | 298° |
| 2026-04-23 07:15 | 20.38845 | -103.05036 | 36003 ft | 429 kts | 298° |
| 2026-04-23 07:16 | 20.41719 | -103.10589 | 36004 ft | 428 kts | 298° |
| 2026-04-23 07:16 | 20.44590 | -103.16142 | 36001 ft | 427 kts | 298° |
| 2026-04-23 07:17 | 20.47458 | -103.21693 | 36001 ft | 427 kts | 298° |
| 2026-04-23 07:17 | 20.50326 | -103.27252 | 36001 ft | 427 kts | 298° |
| 2026-04-23 07:18 | 20.52937 | -103.32951 | 36002 ft | 427 kts | 291° |
| 2026-04-23 07:18 | 20.55077 | -103.38864 | 36005 ft | 427 kts | 290° |
| 2026-04-23 07:19 | 20.57168 | -103.44770 | 36004 ft | 428 kts | 290° |
| 2026-04-23 07:19 | 20.59270 | -103.50718 | 36003 ft | 430 kts | 290° |
| 2026-04-23 07:20 | 20.61385 | -103.56706 | 36001 ft | 430 kts | 290° |
| 2026-04-23 07:20 | 20.63488 | -103.62671 | 36005 ft | 428 kts | 290° |
| 2026-04-23 07:21 | 20.65578 | -103.68603 | 36000 ft | 426 kts | 290° |
| 2026-04-23 07:21 | 20.66601 | -103.71508 | 36002 ft | 426 kts | 290° |
| 2026-04-23 07:23 | 20.68469 | -103.76819 | 36002 ft | 426 kts | 290° |
| 2026-04-23 07:24 | 20.70554 | -103.82754 | 36005 ft | 427 kts | 290° |
| 2026-04-23 07:24 | 20.72640 | -103.88698 | 35998 ft | 427 kts | 290° |
| 2026-04-23 07:25 | 20.74708 | -103.94598 | 36002 ft | 426 kts | 290° |
| 2026-04-23 07:25 | 20.76785 | -104.00536 | 35999 ft | 426 kts | 290° |
| 2026-04-23 07:26 | 20.78860 | -104.06471 | 36004 ft | 426 kts | 290° |
| 2026-04-23 07:26 | 20.80934 | -104.12410 | 36005 ft | 427 kts | 290° |
| 2026-04-23 07:27 | 20.83012 | -104.18370 | 36003 ft | 428 kts | 290° |
| 2026-04-23 07:27 | 20.84741 | -104.24425 | 36000 ft | 426 kts | 278° |
| 2026-04-23 07:28 | 20.84579 | -104.30714 | 35797 ft | 424 kts | 259° |
| 2026-04-23 07:28 | 20.83964 | -104.33814 | 34894 ft | 426 kts | 259° |
| 2026-04-23 07:28 | 20.83462 | -104.36879 | 33731 ft | 422 kts | 260° |
| 2026-04-23 07:28 | 20.82954 | -104.39960 | 32298 ft | 418 kts | 260° |
| 2026-04-23 07:29 | 20.82348 | -104.42969 | 30950 ft | 410 kts | 255° |
| 2026-04-23 07:29 | 20.81534 | -104.45862 | 29650 ft | 402 kts | 252° |
| 2026-04-23 07:29 | 20.80513 | -104.48605 | 28378 ft | 393 kts | 245° |
| 2026-04-23 07:29 | 20.79370 | -104.51227 | 27145 ft | 385 kts | 245° |
| 2026-04-23 07:30 | 20.78233 | -104.53783 | 25940 ft | 377 kts | 244° |
| 2026-04-23 07:30 | 20.77110 | -104.56286 | 24781 ft | 369 kts | 244° |
| 2026-04-23 07:30 | 20.76010 | -104.58729 | 23635 ft | 361 kts | 244° |
| 2026-04-23 07:30 | 20.74934 | -104.61121 | 22440 ft | 355 kts | 244° |
| 2026-04-23 07:31 | 20.73871 | -104.63486 | 21237 ft | 351 kts | 244° |
| 2026-04-23 07:31 | 20.72822 | -104.65819 | 20103 ft | 344 kts | 244° |
| 2026-04-23 07:31 | 20.71799 | -104.68092 | 19298 ft | 330 kts | 244° |
| 2026-04-23 07:31 | 20.70814 | -104.70282 | 19152 ft | 331 kts | 244° |
| 2026-04-23 07:32 | 20.69809 | -104.72511 | 18860 ft | 334 kts | 244° |
| 2026-04-23 07:32 | 20.68802 | -104.74745 | 18524 ft | 331 kts | 244° |
| 2026-04-23 07:32 | 20.67805 | -104.76956 | 17380 ft | 329 kts | 244° |
| 2026-04-23 07:32 | 20.66821 | -104.79138 | 16297 ft | 323 kts | 244° |
| 2026-04-23 07:33 | 20.65853 | -104.81283 | 15199 ft | 319 kts | 244° |
| 2026-04-23 07:33 | 20.64896 | -104.83402 | 14160 ft | 313 kts | 244° |
| 2026-04-23 07:33 | 20.63958 | -104.85478 | 13171 ft | 306 kts | 244° |
| 2026-04-23 07:33 | 20.63041 | -104.87507 | 12147 ft | 302 kts | 244° |
| 2026-04-23 07:34 | 20.62137 | -104.89507 | 11147 ft | 297 kts | 244° |
| 2026-04-23 07:34 | 20.61261 | -104.91454 | 10308 ft | 290 kts | 246° |
| 2026-04-23 07:34 | 20.60503 | -104.93461 | 10168 ft | 292 kts | 251° |
| 2026-04-23 07:34 | 20.59880 | -104.95526 | 10083 ft | 291 kts | 253° |
| 2026-04-23 07:35 | 20.59336 | -104.97611 | 10031 ft | 292 kts | 257° |
| 2026-04-23 07:35 | 20.58987 | -104.99743 | 10015 ft | 292 kts | 261° |
| 2026-04-23 07:35 | 20.58675 | -105.01880 | 10011 ft | 290 kts | 261° |
| 2026-04-23 07:35 | 20.58383 | -105.04003 | 9997 ft | 289 kts | 262° |
| 2026-04-23 07:36 | 20.58093 | -105.06123 | 10001 ft | 289 kts | 262° |
| 2026-04-23 07:36 | 20.57800 | -105.08240 | 10003 ft | 288 kts | 262° |
| 2026-04-23 07:36 | 20.57512 | -105.10333 | 9994 ft | 285 kts | 262° |
| 2026-04-23 07:36 | 20.57222 | -105.12434 | 9863 ft | 280 kts | 262° |
| 2026-04-23 07:37 | 20.56945 | -105.14437 | 9286 ft | 267 kts | 262° |
| 2026-04-23 07:37 | 20.56679 | -105.16358 | 8677 ft | 257 kts | 262° |
| 2026-04-23 07:37 | 20.56421 | -105.18215 | 8079 ft | 249 kts | 262° |
| 2026-04-23 07:37 | 20.56170 | -105.20027 | 7393 ft | 246 kts | 262° |
| 2026-04-23 07:38 | 20.55921 | -105.21818 | 6715 ft | 243 kts | 262° |
| 2026-04-23 07:38 | 20.55608 | -105.23580 | 6030 ft | 240 kts | 251° |
| 2026-04-23 07:38 | 20.54921 | -105.25193 | 5355 ft | 238 kts | 240° |
| 2026-04-23 07:38 | 20.54053 | -105.26689 | 4703 ft | 236 kts | 236° |
| 2026-04-23 07:39 | 20.53088 | -105.28087 | 4192 ft | 233 kts | 229° |
| 2026-04-23 07:39 | 20.51972 | -105.29419 | 4107 ft | 240 kts | 228° |
| 2026-04-23 07:39 | 20.50865 | -105.30692 | 4046 ft | 229 kts | 227° |
| 2026-04-23 07:39 | 20.49921 | -105.31990 | 3980 ft | 216 kts | 248° |
| 2026-04-23 07:40 | 20.49800 | -105.33487 | 3965 ft | 202 kts | 287° |
| 2026-04-23 07:40 | 20.50582 | -105.34685 | 3997 ft | 192 kts | 319° |
| 2026-04-23 07:40 | 20.51585 | -105.35564 | 4048 ft | 188 kts | 320° |
| 2026-04-23 07:40 | 20.52648 | -105.36383 | 4055 ft | 190 kts | 322° |
| 2026-04-23 07:41 | 20.53578 | -105.37325 | 4036 ft | 176 kts | 313° |
| 2026-04-23 07:41 | 20.54520 | -105.38054 | 3956 ft | 163 kts | 347° |
| 2026-04-23 07:41 | 20.55606 | -105.38073 | 3945 ft | 149 kts | 4° |
| 2026-04-23 07:41 | 20.56569 | -105.37866 | 3985 ft | 137 kts | 22° |
| 2026-04-23 07:42 | 20.57389 | -105.37373 | 4035 ft | 135 kts | 35° |
| 2026-04-23 07:42 | 20.58103 | -105.36728 | 4036 ft | 135 kts | 44° |
| 2026-04-23 07:42 | 20.58759 | -105.36017 | 4023 ft | 134 kts | 46° |
| 2026-04-23 07:42 | 20.59396 | -105.35288 | 4001 ft | 134 kts | 46° |
| 2026-04-23 07:43 | 20.60032 | -105.34544 | 3841 ft | 134 kts | 47° |
| 2026-04-23 07:43 | 20.60656 | -105.33789 | 3552 ft | 137 kts | 49° |
| 2026-04-23 07:43 | 20.61277 | -105.33017 | 3103 ft | 136 kts | 47° |
| 2026-04-23 07:43 | 20.61906 | -105.32331 | 2930 ft | 130 kts | 43° |
| 2026-04-23 07:44 | 20.62565 | -105.31622 | 2452 ft | 136 kts | 45° |
| 2026-04-23 07:44 | 20.63245 | -105.30888 | 1929 ft | 139 kts | 44° |
| 2026-04-23 07:44 | 20.63881 | -105.30134 | 1483 ft | 138 kts | 50° |
| 2026-04-23 07:44 | 20.64512 | -105.29359 | 1054 ft | 137 kts | 43° |
| 2026-04-23 07:45 | 20.65190 | -105.28652 | 671 ft | 131 kts | 43° |
| 2026-04-23 07:45 | 20.65798 | -105.27959 | 467 ft | 126 kts | 47° |
| 2026-04-23 07:45 | 20.66396 | -105.27276 | 270 ft | 125 kts | 46° |
| 2026-04-23 07:45 | 20.66986 | -105.26590 | 93 ft | 124 kts | 46° |
| 2026-04-23 07:46 | 20.67545 | -105.25955 | 30 ft | 106 kts | 47° |
| 2026-04-23 07:46 | 20.67948 | -105.25486 | 30 ft | 61 kts | 46° |
| 2026-04-23 07:46 | 20.68159 | -105.25246 | 28 ft | 26 kts | 47° |
| 2026-04-23 07:46 | 20.68210 | -105.25177 | 27 ft | 12 kts | 73° |
| 2026-04-23 07:47 | 20.68182 | -105.25127 | 27 ft | 7 kts | 136° |
| 2026-04-23 07:47 | 20.68140 | -105.25084 | 27 ft | 9 kts | 136° |
| 2026-04-23 07:47 | 20.68085 | -105.25032 | 28 ft | 12 kts | 139° |
| 2026-04-23 07:47 | 20.68032 | -105.24980 | 28 ft | 7 kts | 137° |
| 2026-04-23 07:48 | 20.67988 | -105.24936 | 28 ft | 10 kts | 135° |
| 2026-04-23 07:48 | 20.67994 | -105.24871 | 28 ft | 10 kts | 71° |
| 2026-04-23 07:48 | 20.67971 | -105.24810 | 28 ft | 9 kts | 135° |
| 2026-04-23 07:48 | 20.67932 | -105.24779 | 28 ft | 1 kts | 183° |
| 2026-04-23 07:49 | 20.67914 | -105.24794 | 28 ft | 7 kts | 219° |
| 2026-04-23 07:49 | 20.67897 | -105.24811 | 28 ft | 1 kts | 225° |
| 2026-04-23 07:49 | 20.67894 | -105.24815 | 28 ft | 0 kts | 225° |